sensor_id;sensor_type;location;lat;lon;timestamp;P1;durP1;ratioP1;P2;durP2;ratioP2
38274;SDS011;24637;49.380;6.682;2022-08-11T00:01:50;2.55;;;2.17;;
38274;SDS011;24637;49.380;6.682;2022-08-11T00:04:18;3.10;;;2.17;;
38274;SDS011;24637;49.380;6.682;2022-08-11T00:06:47;4.70;;;2.30;;
38274;SDS011;24637;49.380;6.682;2022-08-11T00:09:16;5.28;;;2.17;;
38274;SDS011;24637;49.380;6.682;2022-08-11T00:11:48;3.45;;;2.50;;
38274;SDS011;24637;49.380;6.682;2022-08-11T00:14:18;4.78;;;2.10;;
38274;SDS011;24637;49.380;6.682;2022-08-11T00:17:05;3.60;;;2.25;;
38274;SDS011;24637;49.380;6.682;2022-08-11T00:19:36;3.55;;;2.30;;
38274;SDS011;24637;49.380;6.682;2022-08-11T00:22:06;3.33;;;2.10;;
38274;SDS011;24637;49.380;6.682;2022-08-11T00:24:33;7.65;;;2.28;;
38274;SDS011;24637;49.380;6.682;2022-08-11T00:27:03;3.13;;;2.33;;
38274;SDS011;24637;49.380;6.682;2022-08-11T00:29:29;4.63;;;2.35;;
38274;SDS011;24637;49.380;6.682;2022-08-11T00:31:56;4.32;;;2.63;;
38274;SDS011;24637;49.380;6.682;2022-08-11T00:34:26;5.68;;;2.17;;
38274;SDS011;24637;49.380;6.682;2022-08-11T00:36:55;2.88;;;2.10;;
38274;SDS011;24637;49.380;6.682;2022-08-11T00:39:24;2.72;;;1.95;;
38274;SDS011;24637;49.380;6.682;2022-08-11T00:41:57;2.33;;;2.10;;
38274;SDS011;24637;49.380;6.682;2022-08-11T00:44:41;3.50;;;2.03;;
38274;SDS011;24637;49.380;6.682;2022-08-11T01:01:22;3.42;;;2.40;;
38274;SDS011;24637;49.380;6.682;2022-08-11T01:04:20;2.28;;;2.03;;
38274;SDS011;24637;49.380;6.682;2022-08-11T01:07:22;4.30;;;2.40;;
38274;SDS011;24637;49.380;6.682;2022-08-11T01:12:20;3.22;;;2.10;;
38274;SDS011;24637;49.380;6.682;2022-08-11T01:15:23;5.63;;;2.47;;
38274;SDS011;24637;49.380;6.682;2022-08-11T01:46:20;3.20;;;2.55;;
38274;SDS011;24637;49.380;6.682;2022-08-11T01:54:53;3.65;;;2.38;;
38274;SDS011;24637;49.380;6.682;2022-08-11T02:00:21;4.53;;;2.20;;
38274;SDS011;24637;49.380;6.682;2022-08-11T02:08:44;7.95;;;2.47;;
38274;SDS011;24637;49.380;6.682;2022-08-11T02:11:25;3.33;;;2.38;;
38274;SDS011;24637;49.380;6.682;2022-08-11T02:22:45;3.03;;;2.45;;
38274;SDS011;24637;49.380;6.682;2022-08-11T02:25:37;3.30;;;2.50;;
38274;SDS011;24637;49.380;6.682;2022-08-11T02:28:21;2.90;;;2.30;;
38274;SDS011;24637;49.380;6.682;2022-08-11T02:34:08;4.05;;;2.50;;
38274;SDS011;24637;49.380;6.682;2022-08-11T02:37:13;4.57;;;2.20;;
38274;SDS011;24637;49.380;6.682;2022-08-11T02:45:27;4.70;;;2.30;;
38274;SDS011;24637;49.380;6.682;2022-08-11T02:53:56;8.98;;;2.80;;
38274;SDS011;24637;49.380;6.682;2022-08-11T03:12:48;4.30;;;2.80;;
38274;SDS011;24637;49.380;6.682;2022-08-11T03:22:01;6.93;;;3.00;;
38274;SDS011;24637;49.380;6.682;2022-08-11T03:30:25;3.22;;;2.92;;
38274;SDS011;24637;49.380;6.682;2022-08-11T03:41:40;5.28;;;2.95;;
38274;SDS011;24637;49.380;6.682;2022-08-11T03:44:33;9.40;;;8.40;;
38274;SDS011;24637;49.380;6.682;2022-08-11T03:48:07;4.93;;;3.40;;
38274;SDS011;24637;49.380;6.682;2022-08-11T03:59:28;4.70;;;3.47;;
38274;SDS011;24637;49.380;6.682;2022-08-11T04:21:35;5.22;;;3.28;;
38274;SDS011;24637;49.380;6.682;2022-08-11T04:54:37;4.90;;;2.80;;
38274;SDS011;24637;49.380;6.682;2022-08-11T04:57:50;4.63;;;2.83;;
38274;SDS011;24637;49.380;6.682;2022-08-11T05:12:53;3.30;;;2.58;;
38274;SDS011;24637;49.380;6.682;2022-08-11T05:15:45;4.93;;;2.50;;
38274;SDS011;24637;49.380;6.682;2022-08-11T05:18:47;7.53;;;3.22;;
38274;SDS011;24637;49.380;6.682;2022-08-11T05:21:33;5.28;;;3.03;;
38274;SDS011;24637;49.380;6.682;2022-08-11T05:24:19;7.47;;;3.20;;
38274;SDS011;24637;49.380;6.682;2022-08-11T05:27:07;4.45;;;2.92;;
38274;SDS011;24637;49.380;6.682;2022-08-11T05:30:01;8.70;;;3.17;;
38274;SDS011;24637;49.380;6.682;2022-08-11T05:32:47;7.55;;;3.47;;
38274;SDS011;24637;49.380;6.682;2022-08-11T05:35:42;5.70;;;3.13;;
38274;SDS011;24637;49.380;6.682;2022-08-11T05:38:24;5.72;;;3.15;;
38274;SDS011;24637;49.380;6.682;2022-08-11T05:41:12;3.78;;;2.92;;
38274;SDS011;24637;49.380;6.682;2022-08-11T05:43:57;4.57;;;3.17;;
38274;SDS011;24637;49.380;6.682;2022-08-11T05:46:43;4.35;;;3.10;;
38274;SDS011;24637;49.380;6.682;2022-08-11T05:49:28;3.05;;;2.63;;
38274;SDS011;24637;49.380;6.682;2022-08-11T05:52:21;4.28;;;3.08;;
38274;SDS011;24637;49.380;6.682;2022-08-11T05:55:08;3.30;;;3.00;;
38274;SDS011;24637;49.380;6.682;2022-08-11T05:57:58;3.78;;;3.08;;
38274;SDS011;24637;49.380;6.682;2022-08-11T06:00:26;3.17;;;2.88;;
38274;SDS011;24637;49.380;6.682;2022-08-11T06:02:53;5.22;;;3.30;;
38274;SDS011;24637;49.380;6.682;2022-08-11T06:05:31;4.95;;;3.20;;
38274;SDS011;24637;49.380;6.682;2022-08-11T06:07:58;5.05;;;3.20;;
38274;SDS011;24637;49.380;6.682;2022-08-11T06:10:24;4.68;;;3.40;;
38274;SDS011;24637;49.380;6.682;2022-08-11T06:12:51;5.45;;;3.13;;
38274;SDS011;24637;49.380;6.682;2022-08-11T06:15:19;5.45;;;3.20;;
38274;SDS011;24637;49.380;6.682;2022-08-11T06:17:45;5.32;;;3.45;;
38274;SDS011;24637;49.380;6.682;2022-08-11T06:20:15;3.60;;;2.95;;
38274;SDS011;24637;49.380;6.682;2022-08-11T06:22:44;6.60;;;2.97;;
38274;SDS011;24637;49.380;6.682;2022-08-11T06:25:11;5.47;;;3.40;;
38274;SDS011;24637;49.380;6.682;2022-08-11T06:27:39;6.15;;;3.00;;
38274;SDS011;24637;49.380;6.682;2022-08-11T06:30:08;7.22;;;3.50;;
38274;SDS011;24637;49.380;6.682;2022-08-11T06:32:42;5.50;;;3.20;;
38274;SDS011;24637;49.380;6.682;2022-08-11T06:35:18;4.45;;;3.10;;
38274;SDS011;24637;49.380;6.682;2022-08-11T06:38:09;4.93;;;2.90;;
38274;SDS011;24637;49.380;6.682;2022-08-11T06:43:44;4.18;;;2.92;;
38274;SDS011;24637;49.380;6.682;2022-08-11T06:46:21;5.05;;;3.03;;
38274;SDS011;24637;49.380;6.682;2022-08-11T06:48:53;9.60;;;3.20;;
38274;SDS011;24637;49.380;6.682;2022-08-11T06:51:20;5.53;;;2.95;;
38274;SDS011;24637;49.380;6.682;2022-08-11T06:53:50;4.22;;;2.85;;
38274;SDS011;24637;49.380;6.682;2022-08-11T06:56:21;5.13;;;2.60;;
38274;SDS011;24637;49.380;6.682;2022-08-11T06:59:09;6.47;;;3.00;;
38274;SDS011;24637;49.380;6.682;2022-08-11T07:13:05;6.15;;;3.00;;
38274;SDS011;24637;49.380;6.682;2022-08-11T07:15:50;5.72;;;2.70;;
38274;SDS011;24637;49.380;6.682;2022-08-11T07:18:33;4.47;;;2.70;;
38274;SDS011;24637;49.380;6.682;2022-08-11T07:21:21;7.57;;;2.72;;
38274;SDS011;24637;49.380;6.682;2022-08-11T07:24:14;5.18;;;2.47;;
38274;SDS011;24637;49.380;6.682;2022-08-11T07:27:03;6.95;;;2.70;;
38274;SDS011;24637;49.380;6.682;2022-08-11T07:29:50;6.53;;;5.32;;
38274;SDS011;24637;49.380;6.682;2022-08-11T07:32:23;9.00;;;2.70;;
38274;SDS011;24637;49.380;6.682;2022-08-11T07:35:07;4.60;;;3.03;;
38274;SDS011;24637;49.380;6.682;2022-08-11T07:37:38;4.25;;;2.53;;
38274;SDS011;24637;49.380;6.682;2022-08-11T07:40:06;3.05;;;2.28;;
38274;SDS011;24637;49.380;6.682;2022-08-11T07:42:33;5.28;;;2.53;;
38274;SDS011;24637;49.380;6.682;2022-08-11T07:45:04;3.78;;;2.40;;
38274;SDS011;24637;49.380;6.682;2022-08-11T07:47:49;2.58;;;2.13;;
38274;SDS011;24637;49.380;6.682;2022-08-11T07:50:34;3.80;;;2.40;;
38274;SDS011;24637;49.380;6.682;2022-08-11T07:53:22;4.85;;;2.72;;
38274;SDS011;24637;49.380;6.682;2022-08-11T07:55:48;3.90;;;2.35;;
38274;SDS011;24637;49.380;6.682;2022-08-11T07:58:14;3.58;;;2.50;;
38274;SDS011;24637;49.380;6.682;2022-08-11T08:00:59;3.75;;;2.50;;
38274;SDS011;24637;49.380;6.682;2022-08-11T08:03:43;5.28;;;2.60;;
38274;SDS011;24637;49.380;6.682;2022-08-11T08:06:28;3.42;;;2.60;;
38274;SDS011;24637;49.380;6.682;2022-08-11T08:09:16;4.28;;;2.55;;
38274;SDS011;24637;49.380;6.682;2022-08-11T08:12:01;6.50;;;3.78;;
38274;SDS011;24637;49.380;6.682;2022-08-11T08:14:48;5.95;;;3.30;;
38274;SDS011;24637;49.380;6.682;2022-08-11T08:17:33;4.88;;;2.70;;
38274;SDS011;24637;49.380;6.682;2022-08-11T08:20:43;6.78;;;2.95;;
38274;SDS011;24637;49.380;6.682;2022-08-11T08:23:09;3.45;;;2.60;;
38274;SDS011;24637;49.380;6.682;2022-08-11T08:25:37;3.30;;;2.45;;
38274;SDS011;24637;49.380;6.682;2022-08-11T08:28:11;3.47;;;2.20;;
38274;SDS011;24637;49.380;6.682;2022-08-11T08:30:40;2.55;;;2.13;;
38274;SDS011;24637;49.380;6.682;2022-08-11T08:33:34;3.45;;;2.50;;
38274;SDS011;24637;49.380;6.682;2022-08-11T08:36:01;3.40;;;2.38;;
38274;SDS011;24637;49.380;6.682;2022-08-11T08:38:48;8.80;;;2.63;;
38274;SDS011;24637;49.380;6.682;2022-08-11T08:41:19;4.47;;;2.50;;
38274;SDS011;24637;49.380;6.682;2022-08-11T08:43:49;4.97;;;2.10;;
38274;SDS011;24637;49.380;6.682;2022-08-11T08:46:21;4.20;;;2.53;;
38274;SDS011;24637;49.380;6.682;2022-08-11T08:48:51;2.55;;;1.98;;
38274;SDS011;24637;49.380;6.682;2022-08-11T08:51:18;4.20;;;2.33;;
38274;SDS011;24637;49.380;6.682;2022-08-11T08:54:05;4.35;;;2.20;;
38274;SDS011;24637;49.380;6.682;2022-08-11T08:56:33;6.22;;;2.22;;
38274;SDS011;24637;49.380;6.682;2022-08-11T08:59:02;2.55;;;2.15;;
38274;SDS011;24637;49.380;6.682;2022-08-11T09:01:29;3.10;;;2.00;;
38274;SDS011;24637;49.380;6.682;2022-08-11T09:04:00;2.97;;;2.10;;
38274;SDS011;24637;49.380;6.682;2022-08-11T09:06:29;3.38;;;1.95;;
38274;SDS011;24637;49.380;6.682;2022-08-11T09:08:55;2.60;;;2.28;;
38274;SDS011;24637;49.380;6.682;2022-08-11T09:11:21;2.65;;;1.85;;
38274;SDS011;24637;49.380;6.682;2022-08-11T09:14:06;3.88;;;2.13;;
38274;SDS011;24637;49.380;6.682;2022-08-11T09:16:31;2.13;;;1.80;;
38274;SDS011;24637;49.380;6.682;2022-08-11T09:18:58;4.00;;;1.98;;
38274;SDS011;24637;49.380;6.682;2022-08-11T09:21:24;2.65;;;2.13;;
38274;SDS011;24637;49.380;6.682;2022-08-11T09:23:50;4.00;;;1.98;;
38274;SDS011;24637;49.380;6.682;2022-08-11T09:26:35;2.72;;;2.03;;
38274;SDS011;24637;49.380;6.682;2022-08-11T09:29:21;3.03;;;2.20;;
38274;SDS011;24637;49.380;6.682;2022-08-11T09:31:47;2.00;;;1.80;;
38274;SDS011;24637;49.380;6.682;2022-08-11T09:34:13;3.65;;;2.30;;
38274;SDS011;24637;49.380;6.682;2022-08-11T09:36:40;2.85;;;2.00;;
38274;SDS011;24637;49.380;6.682;2022-08-11T09:39:27;2.85;;;2.10;;
38274;SDS011;24637;49.380;6.682;2022-08-11T09:42:12;3.58;;;1.92;;
38274;SDS011;24637;49.380;6.682;2022-08-11T09:44:39;3.58;;;2.05;;
38274;SDS011;24637;49.380;6.682;2022-08-11T09:47:29;1.98;;;1.73;;
38274;SDS011;24637;49.380;6.682;2022-08-11T09:49:58;2.60;;;1.70;;
38274;SDS011;24637;49.380;6.682;2022-08-11T09:52:25;2.58;;;1.80;;
38274;SDS011;24637;49.380;6.682;2022-08-11T09:54:51;2.42;;;1.63;;
38274;SDS011;24637;49.380;6.682;2022-08-11T09:57:19;2.40;;;2.00;;
38274;SDS011;24637;49.380;6.682;2022-08-11T10:00:04;3.58;;;1.70;;
38274;SDS011;24637;49.380;6.682;2022-08-11T10:02:32;2.15;;;1.80;;
38274;SDS011;24637;49.380;6.682;2022-08-11T10:04:58;1.50;;;1.40;;
38274;SDS011;24637;49.380;6.682;2022-08-11T10:07:44;2.17;;;1.77;;
38274;SDS011;24637;49.380;6.682;2022-08-11T10:10:14;2.03;;;1.65;;
38274;SDS011;24637;49.380;6.682;2022-08-11T10:12:48;1.63;;;1.40;;
38274;SDS011;24637;49.380;6.682;2022-08-11T10:15:23;1.77;;;1.40;;
38274;SDS011;24637;49.380;6.682;2022-08-11T10:18:46;3.28;;;1.60;;
38274;SDS011;24637;49.380;6.682;2022-08-11T10:26:55;1.90;;;1.40;;
38274;SDS011;24637;49.380;6.682;2022-08-11T10:29:31;3.35;;;1.50;;
38274;SDS011;24637;49.380;6.682;2022-08-11T10:32:20;3.03;;;1.40;;
38274;SDS011;24637;49.380;6.682;2022-08-11T10:35:28;2.17;;;1.40;;
38274;SDS011;24637;49.380;6.682;2022-08-11T10:37:55;1.65;;;1.40;;
38274;SDS011;24637;49.380;6.682;2022-08-11T10:40:22;4.07;;;1.50;;
38274;SDS011;24637;49.380;6.682;2022-08-11T10:42:53;1.40;;;1.30;;
38274;SDS011;24637;49.380;6.682;2022-08-11T10:45:29;3.22;;;1.60;;
38274;SDS011;24637;49.380;6.682;2022-08-11T10:48:16;2.45;;;1.58;;
38274;SDS011;24637;49.380;6.682;2022-08-11T10:50:45;3.40;;;2.03;;
38274;SDS011;24637;49.380;6.682;2022-08-11T10:53:31;2.58;;;1.80;;
38274;SDS011;24637;49.380;6.682;2022-08-11T10:56:16;2.13;;;1.40;;
38274;SDS011;24637;49.380;6.682;2022-08-11T10:59:01;1.60;;;1.40;;
38274;SDS011;24637;49.380;6.682;2022-08-11T11:01:32;1.70;;;1.52;;
38274;SDS011;24637;49.380;6.682;2022-08-11T11:03:59;2.65;;;1.38;;
38274;SDS011;24637;49.380;6.682;2022-08-11T11:09:15;2.00;;;1.40;;
38274;SDS011;24637;49.380;6.682;2022-08-11T11:11:49;2.40;;;1.33;;
38274;SDS011;24637;49.380;6.682;2022-08-11T11:14:36;1.10;;;1.00;;
38274;SDS011;24637;49.380;6.682;2022-08-11T11:17:27;1.63;;;1.40;;
38274;SDS011;24637;49.380;6.682;2022-08-11T11:20:20;1.60;;;1.50;;
38274;SDS011;24637;49.380;6.682;2022-08-11T11:37:39;1.77;;;1.40;;
38274;SDS011;24637;49.380;6.682;2022-08-11T11:40:10;1.40;;;1.30;;
38274;SDS011;24637;49.380;6.682;2022-08-11T11:42:38;2.92;;;1.40;;
38274;SDS011;24637;49.380;6.682;2022-08-11T11:45:05;2.10;;;1.38;;
38274;SDS011;24637;49.380;6.682;2022-08-11T11:47:33;1.67;;;1.45;;
38274;SDS011;24637;49.380;6.682;2022-08-11T11:50:00;1.73;;;1.25;;
38274;SDS011;24637;49.380;6.682;2022-08-11T11:52:26;1.65;;;1.20;;
38274;SDS011;24637;49.380;6.682;2022-08-11T11:54:54;1.63;;;1.40;;
38274;SDS011;24637;49.380;6.682;2022-08-11T11:57:20;1.42;;;1.20;;
38274;SDS011;24637;49.380;6.682;2022-08-11T12:00:06;1.35;;;1.25;;
38274;SDS011;24637;49.380;6.682;2022-08-11T12:02:52;2.78;;;1.52;;
38274;SDS011;24637;49.380;6.682;2022-08-11T12:05:22;1.77;;;1.35;;
38274;SDS011;24637;49.380;6.682;2022-08-11T12:07:49;3.15;;;1.50;;
38274;SDS011;24637;49.380;6.682;2022-08-11T12:11:01;2.55;;;1.40;;
38274;SDS011;24637;49.380;6.682;2022-08-11T12:13:50;3.22;;;1.70;;
38274;SDS011;24637;49.380;6.682;2022-08-11T12:16:18;2.10;;;1.60;;
38274;SDS011;24637;49.380;6.682;2022-08-11T12:18:45;2.78;;;1.33;;
38274;SDS011;24637;49.380;6.682;2022-08-11T12:21:13;4.28;;;2.08;;
38274;SDS011;24637;49.380;6.682;2022-08-11T12:23:40;4.45;;;1.73;;
38274;SDS011;24637;49.380;6.682;2022-08-11T12:26:25;3.45;;;1.60;;
38274;SDS011;24637;49.380;6.682;2022-08-11T12:29:10;2.17;;;1.58;;
38274;SDS011;24637;49.380;6.682;2022-08-11T12:31:37;3.50;;;1.45;;
38274;SDS011;24637;49.380;6.682;2022-08-11T12:34:04;1.65;;;1.40;;
38274;SDS011;24637;49.380;6.682;2022-08-11T12:36:34;1.60;;;1.33;;
38274;SDS011;24637;49.380;6.682;2022-08-11T12:39:05;2.25;;;1.42;;
38274;SDS011;24637;49.380;6.682;2022-08-11T12:41:36;3.92;;;1.45;;
38274;SDS011;24637;49.380;6.682;2022-08-11T12:44:22;3.85;;;1.40;;
38274;SDS011;24637;49.380;6.682;2022-08-11T12:47:09;1.85;;;1.42;;
38274;SDS011;24637;49.380;6.682;2022-08-11T12:49:37;1.73;;;1.45;;
38274;SDS011;24637;49.380;6.682;2022-08-11T12:52:28;2.40;;;1.40;;
38274;SDS011;24637;49.380;6.682;2022-08-11T12:55:00;1.98;;;1.45;;
38274;SDS011;24637;49.380;6.682;2022-08-11T12:58:03;3.08;;;1.83;;
38274;SDS011;24637;49.380;6.682;2022-08-11T13:00:41;2.20;;;2.00;;
38274;SDS011;24637;49.380;6.682;2022-08-11T13:03:29;3.35;;;2.20;;
38274;SDS011;24637;49.380;6.682;2022-08-11T13:06:14;4.75;;;2.35;;
38274;SDS011;24637;49.380;6.682;2022-08-11T13:08:40;2.95;;;2.38;;
38274;SDS011;24637;49.380;6.682;2022-08-11T13:11:07;2.88;;;2.30;;
38274;SDS011;24637;49.380;6.682;2022-08-11T13:13:52;3.25;;;2.35;;
38274;SDS011;24637;49.380;6.682;2022-08-11T13:16:21;2.67;;;2.10;;
38274;SDS011;24637;49.380;6.682;2022-08-11T13:18:48;2.88;;;2.10;;
38274;SDS011;24637;49.380;6.682;2022-08-11T13:21:14;3.00;;;1.90;;
38274;SDS011;24637;49.380;6.682;2022-08-11T13:23:41;3.78;;;1.98;;
38274;SDS011;24637;49.380;6.682;2022-08-11T13:26:07;3.20;;;2.05;;
38274;SDS011;24637;49.380;6.682;2022-08-11T13:28:35;2.42;;;1.77;;
38274;SDS011;24637;49.380;6.682;2022-08-11T13:31:02;2.45;;;2.00;;
38274;SDS011;24637;49.380;6.682;2022-08-11T13:33:42;2.78;;;2.20;;
38274;SDS011;24637;49.380;6.682;2022-08-11T13:36:10;4.82;;;2.25;;
38274;SDS011;24637;49.380;6.682;2022-08-11T13:38:36;3.55;;;2.72;;
38274;SDS011;24637;49.380;6.682;2022-08-11T13:41:05;3.47;;;2.42;;
38274;SDS011;24637;49.380;6.682;2022-08-11T13:43:51;2.50;;;2.20;;
38274;SDS011;24637;49.380;6.682;2022-08-11T13:46:18;3.35;;;2.20;;
38274;SDS011;24637;49.380;6.682;2022-08-11T13:48:46;3.40;;;2.15;;
38274;SDS011;24637;49.380;6.682;2022-08-11T13:51:13;4.03;;;2.95;;
38274;SDS011;24637;49.380;6.682;2022-08-11T13:53:56;3.72;;;2.63;;
38274;SDS011;24637;49.380;6.682;2022-08-11T13:56:23;4.15;;;2.50;;
38274;SDS011;24637;49.380;6.682;2022-08-11T13:58:50;2.88;;;2.05;;
38274;SDS011;24637;49.380;6.682;2022-08-11T14:01:17;3.08;;;1.92;;
38274;SDS011;24637;49.380;6.682;2022-08-11T14:03:45;3.15;;;2.20;;
38274;SDS011;24637;49.380;6.682;2022-08-11T14:06:12;4.03;;;2.20;;
38274;SDS011;24637;49.380;6.682;2022-08-11T14:08:39;5.88;;;2.60;;
38274;SDS011;24637;49.380;6.682;2022-08-11T14:11:06;3.38;;;2.22;;
38274;SDS011;24637;49.380;6.682;2022-08-11T14:13:51;3.95;;;2.70;;
38274;SDS011;24637;49.380;6.682;2022-08-11T14:16:30;3.38;;;2.67;;
38274;SDS011;24637;49.380;6.682;2022-08-11T14:19:01;3.85;;;2.72;;
38274;SDS011;24637;49.380;6.682;2022-08-11T14:21:32;2.45;;;2.20;;
38274;SDS011;24637;49.380;6.682;2022-08-11T14:24:23;3.67;;;2.40;;
38274;SDS011;24637;49.380;6.682;2022-08-11T14:26:50;3.05;;;2.20;;
38274;SDS011;24637;49.380;6.682;2022-08-11T14:29:18;4.00;;;2.10;;
38274;SDS011;24637;49.380;6.682;2022-08-11T14:34:10;3.38;;;2.20;;
38274;SDS011;24637;49.380;6.682;2022-08-11T14:36:42;4.35;;;2.38;;
38274;SDS011;24637;49.380;6.682;2022-08-11T14:39:12;6.25;;;2.08;;
38274;SDS011;24637;49.380;6.682;2022-08-11T14:41:52;2.88;;;2.08;;
38274;SDS011;24637;49.380;6.682;2022-08-11T14:44:39;2.45;;;2.00;;
38274;SDS011;24637;49.380;6.682;2022-08-11T14:47:26;3.22;;;2.17;;
38274;SDS011;24637;49.380;6.682;2022-08-11T14:49:54;2.83;;;2.08;;
38274;SDS011;24637;49.380;6.682;2022-08-11T14:52:21;2.38;;;1.90;;
38274;SDS011;24637;49.380;6.682;2022-08-11T14:54:49;3.70;;;2.30;;
38274;SDS011;24637;49.380;6.682;2022-08-11T14:57:36;4.05;;;2.28;;
38274;SDS011;24637;49.380;6.682;2022-08-11T15:00:04;3.08;;;2.17;;
38274;SDS011;24637;49.380;6.682;2022-08-11T15:02:36;4.20;;;2.20;;
38274;SDS011;24637;49.380;6.682;2022-08-11T15:05:22;2.38;;;2.15;;
38274;SDS011;24637;49.380;6.682;2022-08-11T15:07:49;2.97;;;2.35;;
38274;SDS011;24637;49.380;6.682;2022-08-11T15:10:16;2.97;;;2.55;;
38274;SDS011;24637;49.380;6.682;2022-08-11T15:12:43;2.60;;;2.20;;
38274;SDS011;24637;49.380;6.682;2022-08-11T15:15:09;3.40;;;2.38;;
38274;SDS011;24637;49.380;6.682;2022-08-11T15:17:56;3.17;;;2.33;;
38274;SDS011;24637;49.380;6.682;2022-08-11T15:20:24;3.55;;;2.25;;
38274;SDS011;24637;49.380;6.682;2022-08-11T15:23:09;3.38;;;2.20;;
38274;SDS011;24637;49.380;6.682;2022-08-11T15:25:55;3.95;;;2.20;;
38274;SDS011;24637;49.380;6.682;2022-08-11T15:28:23;2.78;;;1.90;;
38274;SDS011;24637;49.380;6.682;2022-08-11T15:31:10;3.03;;;2.20;;
38274;SDS011;24637;49.380;6.682;2022-08-11T15:33:57;2.92;;;2.10;;
38274;SDS011;24637;49.380;6.682;2022-08-11T15:36:46;5.10;;;2.30;;
38274;SDS011;24637;49.380;6.682;2022-08-11T15:39:44;3.88;;;1.98;;
38274;SDS011;24637;49.380;6.682;2022-08-11T15:42:32;2.97;;;2.10;;
38274;SDS011;24637;49.380;6.682;2022-08-11T15:45:22;3.45;;;2.15;;
38274;SDS011;24637;49.380;6.682;2022-08-11T15:48:08;2.45;;;1.90;;
38274;SDS011;24637;49.380;6.682;2022-08-11T15:50:40;6.35;;;2.10;;
38274;SDS011;24637;49.380;6.682;2022-08-11T15:56:03;3.15;;;1.85;;
38274;SDS011;24637;49.380;6.682;2022-08-11T15:58:32;2.70;;;1.83;;
38274;SDS011;24637;49.380;6.682;2022-08-11T16:01:20;2.25;;;1.98;;
38274;SDS011;24637;49.380;6.682;2022-08-11T16:04:10;2.70;;;1.75;;
38274;SDS011;24637;49.380;6.682;2022-08-11T16:07:14;2.38;;;1.80;;
38274;SDS011;24637;49.380;6.682;2022-08-11T16:12:11;1.70;;;1.60;;
38274;SDS011;24637;49.380;6.682;2022-08-11T16:14:42;1.85;;;1.60;;
38274;SDS011;24637;49.380;6.682;2022-08-11T16:17:31;3.03;;;1.98;;
38274;SDS011;24637;49.380;6.682;2022-08-11T16:19:59;4.13;;;1.80;;
38274;SDS011;24637;49.380;6.682;2022-08-11T16:22:29;1.95;;;1.75;;
38274;SDS011;24637;49.380;6.682;2022-08-11T16:25:02;4.07;;;1.98;;
38274;SDS011;24637;49.380;6.682;2022-08-11T16:27:32;3.00;;;1.90;;
38274;SDS011;24637;49.380;6.682;2022-08-11T16:30:02;3.25;;;1.85;;
38274;SDS011;24637;49.380;6.682;2022-08-11T16:32:30;7.03;;;1.95;;
38274;SDS011;24637;49.380;6.682;2022-08-11T16:34:59;3.45;;;1.88;;
38274;SDS011;24637;49.380;6.682;2022-08-11T16:37:45;2.50;;;1.80;;
38274;SDS011;24637;49.380;6.682;2022-08-11T16:40:31;3.03;;;1.95;;
38274;SDS011;24637;49.380;6.682;2022-08-11T16:42:58;2.85;;;2.08;;
38274;SDS011;24637;49.380;6.682;2022-08-11T16:45:46;3.00;;;2.00;;
38274;SDS011;24637;49.380;6.682;2022-08-11T16:48:33;2.30;;;2.05;;
38274;SDS011;24637;49.380;6.682;2022-08-11T16:51:01;3.85;;;2.30;;
38274;SDS011;24637;49.380;6.682;2022-08-11T16:53:27;3.08;;;2.17;;
38274;SDS011;24637;49.380;6.682;2022-08-11T16:55:54;2.42;;;2.20;;
38274;SDS011;24637;49.380;6.682;2022-08-11T16:58:20;4.18;;;2.10;;
38274;SDS011;24637;49.380;6.682;2022-08-11T17:01:07;3.60;;;2.20;;
38274;SDS011;24637;49.380;6.682;2022-08-11T17:03:35;3.05;;;2.25;;
38274;SDS011;24637;49.380;6.682;2022-08-11T17:06:26;2.65;;;2.05;;
38274;SDS011;24637;49.380;6.682;2022-08-11T17:09:10;2.90;;;1.90;;
38274;SDS011;24637;49.380;6.682;2022-08-11T17:11:59;3.47;;;2.20;;
38274;SDS011;24637;49.380;6.682;2022-08-11T17:14:49;2.60;;;2.30;;
38274;SDS011;24637;49.380;6.682;2022-08-11T17:17:31;2.53;;;2.10;;
38274;SDS011;24637;49.380;6.682;2022-08-11T17:20:02;2.90;;;2.20;;
38274;SDS011;24637;49.380;6.682;2022-08-11T17:22:33;4.00;;;2.05;;
38274;SDS011;24637;49.380;6.682;2022-08-11T17:25:18;1.95;;;1.52;;
38274;SDS011;24637;49.380;6.682;2022-08-11T17:27:45;2.58;;;1.70;;
38274;SDS011;24637;49.380;6.682;2022-08-11T17:30:12;1.73;;;1.60;;
38274;SDS011;24637;49.380;6.682;2022-08-11T17:32:40;2.47;;;2.13;;
38274;SDS011;24637;49.380;6.682;2022-08-11T17:35:28;2.08;;;1.77;;
38274;SDS011;24637;49.380;6.682;2022-08-11T17:38:01;2.22;;;1.95;;
38274;SDS011;24637;49.380;6.682;2022-08-11T17:40:36;2.53;;;2.00;;
38274;SDS011;24637;49.380;6.682;2022-08-11T17:43:06;2.47;;;1.80;;
38274;SDS011;24637;49.380;6.682;2022-08-11T17:45:51;3.13;;;1.80;;
38274;SDS011;24637;49.380;6.682;2022-08-11T17:48:33;3.97;;;2.05;;
38274;SDS011;24637;49.380;6.682;2022-08-11T17:51:03;4.03;;;1.95;;
38274;SDS011;24637;49.380;6.682;2022-08-11T17:53:38;2.70;;;2.00;;
38274;SDS011;24637;49.380;6.682;2022-08-11T17:56:24;2.40;;;1.98;;
38274;SDS011;24637;49.380;6.682;2022-08-11T17:59:10;2.42;;;1.90;;
38274;SDS011;24637;49.380;6.682;2022-08-11T18:01:57;2.05;;;1.75;;
38274;SDS011;24637;49.380;6.682;2022-08-11T18:04:43;4.25;;;1.73;;
38274;SDS011;24637;49.380;6.682;2022-08-11T18:07:14;4.80;;;2.10;;
38274;SDS011;24637;49.380;6.682;2022-08-11T18:09:59;3.05;;;2.10;;
38274;SDS011;24637;49.380;6.682;2022-08-11T18:12:45;3.28;;;2.05;;
38274;SDS011;24637;49.380;6.682;2022-08-11T18:15:31;2.13;;;1.92;;
38274;SDS011;24637;49.380;6.682;2022-08-11T18:18:15;2.75;;;2.08;;
38274;SDS011;24637;49.380;6.682;2022-08-11T18:20:59;3.60;;;2.08;;
38274;SDS011;24637;49.380;6.682;2022-08-11T18:23:43;2.50;;;2.22;;
38274;SDS011;24637;49.380;6.682;2022-08-11T18:26:30;2.50;;;1.88;;
38274;SDS011;24637;49.380;6.682;2022-08-11T18:29:14;2.97;;;1.80;;
38274;SDS011;24637;49.380;6.682;2022-08-11T18:32:01;2.65;;;1.85;;
38274;SDS011;24637;49.380;6.682;2022-08-11T18:34:46;2.22;;;1.95;;
38274;SDS011;24637;49.380;6.682;2022-08-11T18:37:33;7.38;;;2.25;;
38274;SDS011;24637;49.380;6.682;2022-08-11T18:40:21;2.35;;;2.00;;
38274;SDS011;24637;49.380;6.682;2022-08-11T18:43:10;3.78;;;2.55;;
38274;SDS011;24637;49.380;6.682;2022-08-11T18:46:00;2.67;;;2.22;;
38274;SDS011;24637;49.380;6.682;2022-08-11T18:48:49;4.70;;;2.83;;
38274;SDS011;24637;49.380;6.682;2022-08-11T18:51:37;4.90;;;2.42;;
38274;SDS011;24637;49.380;6.682;2022-08-11T18:54:23;4.70;;;2.38;;
38274;SDS011;24637;49.380;6.682;2022-08-11T18:57:09;3.13;;;2.45;;
38274;SDS011;24637;49.380;6.682;2022-08-11T18:59:55;8.32;;;2.35;;
38274;SDS011;24637;49.380;6.682;2022-08-11T19:02:43;4.53;;;2.40;;
38274;SDS011;24637;49.380;6.682;2022-08-11T19:05:29;6.30;;;2.60;;
38274;SDS011;24637;49.380;6.682;2022-08-11T19:08:14;4.65;;;2.80;;
38274;SDS011;24637;49.380;6.682;2022-08-11T19:11:01;9.73;;;2.33;;
38274;SDS011;24637;49.380;6.682;2022-08-11T19:13:45;11.60;;;2.53;;
38274;SDS011;24637;49.380;6.682;2022-08-11T19:16:30;4.20;;;2.60;;
38274;SDS011;24637;49.380;6.682;2022-08-11T19:19:17;5.30;;;2.45;;
38274;SDS011;24637;49.380;6.682;2022-08-11T19:22:02;8.75;;;2.55;;
38274;SDS011;24637;49.380;6.682;2022-08-11T19:24:47;6.05;;;2.38;;
38274;SDS011;24637;49.380;6.682;2022-08-11T19:27:34;3.00;;;2.63;;
38274;SDS011;24637;49.380;6.682;2022-08-11T19:30:20;5.47;;;2.50;;
38274;SDS011;24637;49.380;6.682;2022-08-11T19:33:04;4.05;;;3.00;;
38274;SDS011;24637;49.380;6.682;2022-08-11T19:35:49;4.95;;;2.70;;
38274;SDS011;24637;49.380;6.682;2022-08-11T19:38:33;4.70;;;3.05;;
38274;SDS011;24637;49.380;6.682;2022-08-11T19:41:19;3.67;;;2.90;;
38274;SDS011;24637;49.380;6.682;2022-08-11T19:44:05;3.22;;;2.60;;
38274;SDS011;24637;49.380;6.682;2022-08-11T19:46:50;4.82;;;3.22;;
38274;SDS011;24637;49.380;6.682;2022-08-11T19:49:36;4.28;;;2.67;;